SARP/PSS METAR and TAF weather

Enter ICAO airport designator
Station Type Date Time Source
SARP METAR 2021/06/22 22:00 UTC NOAA

SARP 222200Z 11002KT 9999 SCT040 BKN200 17/15 Q1018


Station Type Date Time Source
SARP Decoded METAR 2021/06/22 22:00 UTC NOAA

Posadas Aero., Argentina (SARP) 27-22S 055-58W 133M
Jun 22, 2021 - 06:00 PM EDT / 2021.06.22 2200 UTC
Wind: from the ESE (110 degrees) at 2 MPH (2 KT):0
Visibility: greater than 7 mile(s):0
Sky conditions: mostly cloudy
Temperature: 62 F (17 C)
Dew Point: 59 F (15 C)
Relative Humidity: 88%
Pressure (altimeter): 30.06 in. Hg (1018 hPa)
ob: SARP 222200Z 11002KT 9999 SCT040 BKN200 17/15 Q1018
cycle: 22

Station Type Date Time Source
SARP TAF 2021/06/22 18:51 UTC NOAA

TAF SARP 221700Z 2218/2318 09005KT 9999 BKN020 TX24/2318Z TN14/2310Z
BECMG 2300/2302 3000 BR BKN015 PROB40 2308/2312 0500 FG
BECMG 2313/2314 07010KT 9999 OVC020 PROB30 2315/2318 6000 -RA OVC050

Example: see airport list